Virgilia, California
Current Conditions -  °F | °C
As of 3:35 AM on Thursday 23 Oct 2014 (Local Time) from KCIC Reporting Station
Overcast Overcast  
Wind Chill: 59°   Ceiling: 6500
Heat Index: 59°   Visibility: 10mi
Dew Point: 50°   Wind: 5mph
Humidity: 72%   Direction: 340°NNW
Pressure: 30.02"   Gusts: NA
Location:  39.9994°N, 121.168°W
Report Text: KCIC 231035Z AUTO 34004KT 10SM FEW050 BKN065 OVC110 15/10 A3002 RMK AO1
Loading
Personal Weather Stations






























Interactive Weather Map
Tropical Storm Tracking
New forecast layout! Learn more

10-Day Weather Forecast

Advertisements
Track Severe Weather on mobile